sensor_id;sensor_type;location;lat;lon;timestamp;P1;durP1;ratioP1;P2;durP2;ratioP2
55692;SDS011;41590;53.366;5.212;2023-08-20T00:00:52;13.90;;;2.80;;
55692;SDS011;41590;53.366;5.212;2023-08-20T00:06:34;15.98;;;2.45;;
55692;SDS011;41590;53.366;5.212;2023-08-20T00:26:55;11.23;;;2.38;;
55692;SDS011;41590;53.366;5.212;2023-08-20T00:29:25;14.70;;;2.90;;
55692;SDS011;41590;53.366;5.212;2023-08-20T00:31:51;16.30;;;2.92;;
55692;SDS011;41590;53.366;5.212;2023-08-20T00:34:17;17.33;;;2.38;;
55692;SDS011;41590;53.366;5.212;2023-08-20T00:36:43;15.00;;;2.70;;
55692;SDS011;41590;53.366;5.212;2023-08-20T00:39:10;13.27;;;2.53;;
55692;SDS011;41590;53.366;5.212;2023-08-20T00:44:13;16.40;;;2.42;;
55692;SDS011;41590;53.366;5.212;2023-08-20T00:46:40;18.20;;;3.00;;
55692;SDS011;41590;53.366;5.212;2023-08-20T00:54:20;24.98;;;3.22;;
55692;SDS011;41590;53.366;5.212;2023-08-20T00:56:48;18.00;;;2.60;;
55692;SDS011;41590;53.366;5.212;2023-08-20T00:59:16;15.68;;;2.50;;
55692;SDS011;41590;53.366;5.212;2023-08-20T01:10:46;18.27;;;2.83;;
55692;SDS011;41590;53.366;5.212;2023-08-20T01:13:18;18.58;;;3.22;;
55692;SDS011;41590;53.366;5.212;2023-08-20T01:18:32;22.58;;;2.67;;
55692;SDS011;41590;53.366;5.212;2023-08-20T01:24:00;16.73;;;2.78;;
55692;SDS011;41590;53.366;5.212;2023-08-20T01:29:30;14.93;;;2.80;;
55692;SDS011;41590;53.366;5.212;2023-08-20T01:32:06;18.98;;;2.60;;
55692;SDS011;41590;53.366;5.212;2023-08-20T01:34:42;19.17;;;3.20;;
55692;SDS011;41590;53.366;5.212;2023-08-20T01:37:21;19.02;;;3.67;;
55692;SDS011;41590;53.366;5.212;2023-08-20T01:39:56;20.92;;;3.13;;
55692;SDS011;41590;53.366;5.212;2023-08-20T01:45:53;13.85;;;2.67;;
55692;SDS011;41590;53.366;5.212;2023-08-20T01:48:21;15.30;;;3.15;;
55692;SDS011;41590;53.366;5.212;2023-08-20T02:02:24;15.98;;;2.97;;
55692;SDS011;41590;53.366;5.212;2023-08-20T02:05:09;18.92;;;2.60;;
55692;SDS011;41590;53.366;5.212;2023-08-20T02:07:46;19.95;;;2.60;;
55692;SDS011;41590;53.366;5.212;2023-08-20T02:10:26;12.88;;;2.42;;
55692;SDS011;41590;53.366;5.212;2023-08-20T02:21:20;17.83;;;3.08;;
55692;SDS011;41590;53.366;5.212;2023-08-20T02:24:15;24.77;;;3.08;;
55692;SDS011;41590;53.366;5.212;2023-08-20T02:29:21;20.90;;;3.45;;
55692;SDS011;41590;53.366;5.212;2023-08-20T02:43:12;19.73;;;3.28;;
55692;SDS011;41590;53.366;5.212;2023-08-20T02:45:51;20.20;;;2.42;;
55692;SDS011;41590;53.366;5.212;2023-08-20T02:54:20;17.17;;;3.10;;
55692;SDS011;41590;53.366;5.212;2023-08-20T02:56:48;21.58;;;3.28;;
55692;SDS011;41590;53.366;5.212;2023-08-20T02:59:16;16.90;;;2.60;;
55692;SDS011;41590;53.366;5.212;2023-08-20T03:07:59;19.52;;;2.90;;
55692;SDS011;41590;53.366;5.212;2023-08-20T03:10:39;15.35;;;2.75;;
55692;SDS011;41590;53.366;5.212;2023-08-20T03:13:23;20.05;;;2.97;;
55692;SDS011;41590;53.366;5.212;2023-08-20T03:15:49;21.60;;;3.88;;
55692;SDS011;41590;53.366;5.212;2023-08-20T03:24:10;22.20;;;3.40;;
55692;SDS011;41590;53.366;5.212;2023-08-20T03:26:40;25.58;;;3.80;;
55692;SDS011;41590;53.366;5.212;2023-08-20T03:29:12;17.55;;;3.15;;
55692;SDS011;41590;53.366;5.212;2023-08-20T03:31:41;28.20;;;3.77;;
55692;SDS011;41590;53.366;5.212;2023-08-20T03:39:58;19.33;;;3.67;;
55692;SDS011;41590;53.366;5.212;2023-08-20T03:48:03;23.77;;;2.90;;
55692;SDS011;41590;53.366;5.212;2023-08-20T03:53:53;25.10;;;3.45;;
55692;SDS011;41590;53.366;5.212;2023-08-20T03:59:43;25.42;;;3.53;;
55692;SDS011;41590;53.366;5.212;2023-08-20T04:04:42;21.33;;;3.50;;
55692;SDS011;41590;53.366;5.212;2023-08-20T04:07:20;19.20;;;4.28;;
55692;SDS011;41590;53.366;5.212;2023-08-20T04:09:56;26.58;;;3.10;;
55692;SDS011;41590;53.366;5.212;2023-08-20T04:21:07;21.60;;;3.40;;
55692;SDS011;41590;53.366;5.212;2023-08-20T04:23:38;22.92;;;3.78;;
55692;SDS011;41590;53.366;5.212;2023-08-20T04:29:14;22.70;;;3.50;;
55692;SDS011;41590;53.366;5.212;2023-08-20T04:41:22;22.17;;;3.65;;
55692;SDS011;41590;53.366;5.212;2023-08-20T04:46:36;23.80;;;4.15;;
55692;SDS011;41590;53.366;5.212;2023-08-20T04:49:03;20.02;;;3.53;;
55692;SDS011;41590;53.366;5.212;2023-08-20T04:51:29;22.65;;;3.92;;
55692;SDS011;41590;53.366;5.212;2023-08-20T05:02:13;31.48;;;4.53;;
55692;SDS011;41590;53.366;5.212;2023-08-20T05:04:39;23.17;;;4.10;;
55692;SDS011;41590;53.366;5.212;2023-08-20T05:15:55;19.80;;;2.75;;
55692;SDS011;41590;53.366;5.212;2023-08-20T05:22:04;20.67;;;3.58;;
55692;SDS011;41590;53.366;5.212;2023-08-20T05:31:10;23.40;;;3.45;;
55692;SDS011;41590;53.366;5.212;2023-08-20T05:33:37;26.80;;;3.90;;
55692;SDS011;41590;53.366;5.212;2023-08-20T05:36:05;29.30;;;4.30;;
55692;SDS011;41590;53.366;5.212;2023-08-20T05:38:32;24.90;;;3.63;;
55692;SDS011;41590;53.366;5.212;2023-08-20T05:41:03;27.20;;;3.90;;
55692;SDS011;41590;53.366;5.212;2023-08-20T05:49:24;23.10;;;3.70;;
55692;SDS011;41590;53.366;5.212;2023-08-20T06:01:41;21.90;;;4.72;;
55692;SDS011;41590;53.366;5.212;2023-08-20T06:04:12;24.50;;;3.85;;
55692;SDS011;41590;53.366;5.212;2023-08-20T06:09:18;19.58;;;3.72;;
55692;SDS011;41590;53.366;5.212;2023-08-20T06:12:02;27.88;;;4.50;;
55692;SDS011;41590;53.366;5.212;2023-08-20T06:14:31;22.80;;;3.65;;
55692;SDS011;41590;53.366;5.212;2023-08-20T06:17:00;25.33;;;3.83;;
55692;SDS011;41590;53.366;5.212;2023-08-20T06:22:47;19.00;;;3.45;;
55692;SDS011;41590;53.366;5.212;2023-08-20T06:25:20;30.00;;;3.90;;
55692;SDS011;41590;53.366;5.212;2023-08-20T06:30:28;19.95;;;3.45;;
55692;SDS011;41590;53.366;5.212;2023-08-20T06:32:55;22.55;;;4.03;;
55692;SDS011;41590;53.366;5.212;2023-08-20T06:38:10;23.40;;;3.90;;
55692;SDS011;41590;53.366;5.212;2023-08-20T06:40:40;21.90;;;3.78;;
55692;SDS011;41590;53.366;5.212;2023-08-20T06:43:08;17.05;;;3.65;;
55692;SDS011;41590;53.366;5.212;2023-08-20T06:45:41;26.00;;;3.47;;
55692;SDS011;41590;53.366;5.212;2023-08-20T06:48:07;22.75;;;3.60;;
55692;SDS011;41590;53.366;5.212;2023-08-20T06:50:33;24.67;;;3.95;;
55692;SDS011;41590;53.366;5.212;2023-08-20T06:53:14;28.40;;;4.03;;
55692;SDS011;41590;53.366;5.212;2023-08-20T06:55:41;17.58;;;3.40;;
55692;SDS011;41590;53.366;5.212;2023-08-20T06:58:14;16.42;;;2.88;;
55692;SDS011;41590;53.366;5.212;2023-08-20T07:00:44;16.77;;;3.33;;
55692;SDS011;41590;53.366;5.212;2023-08-20T07:03:11;18.65;;;3.38;;
55692;SDS011;41590;53.366;5.212;2023-08-20T07:05:38;17.90;;;3.53;;
55692;SDS011;41590;53.366;5.212;2023-08-20T07:08:06;20.02;;;3.63;;
55692;SDS011;41590;53.366;5.212;2023-08-20T07:10:32;20.58;;;3.22;;
55692;SDS011;41590;53.366;5.212;2023-08-20T07:13:11;18.15;;;2.97;;
55692;SDS011;41590;53.366;5.212;2023-08-20T07:15:52;13.55;;;2.67;;
55692;SDS011;41590;53.366;5.212;2023-08-20T07:18:23;17.75;;;2.88;;
55692;SDS011;41590;53.366;5.212;2023-08-20T07:20:55;16.38;;;2.70;;
55692;SDS011;41590;53.366;5.212;2023-08-20T07:23:22;18.90;;;3.38;;
55692;SDS011;41590;53.366;5.212;2023-08-20T07:28:49;16.70;;;2.70;;
55692;SDS011;41590;53.366;5.212;2023-08-20T07:31:34;19.25;;;3.03;;
55692;SDS011;41590;53.366;5.212;2023-08-20T07:36:52;13.55;;;3.05;;
55692;SDS011;41590;53.366;5.212;2023-08-20T07:39:33;22.73;;;3.30;;
55692;SDS011;41590;53.366;5.212;2023-08-20T07:41:59;18.85;;;3.05;;
55692;SDS011;41590;53.366;5.212;2023-08-20T07:44:29;25.33;;;3.47;;
55692;SDS011;41590;53.366;5.212;2023-08-20T07:49:51;18.17;;;2.72;;
55692;SDS011;41590;53.366;5.212;2023-08-20T07:52:25;20.10;;;2.88;;
55692;SDS011;41590;53.366;5.212;2023-08-20T07:54:53;18.77;;;3.38;;
55692;SDS011;41590;53.366;5.212;2023-08-20T07:57:22;18.25;;;3.85;;
55692;SDS011;41590;53.366;5.212;2023-08-20T07:59:57;16.60;;;2.83;;
55692;SDS011;41590;53.366;5.212;2023-08-20T08:07:58;15.63;;;2.90;;
55692;SDS011;41590;53.366;5.212;2023-08-20T08:10:32;19.90;;;3.17;;
55692;SDS011;41590;53.366;5.212;2023-08-20T08:19:18;13.90;;;3.00;;
55692;SDS011;41590;53.366;5.212;2023-08-20T08:24:42;16.15;;;3.30;;
55692;SDS011;41590;53.366;5.212;2023-08-20T08:27:15;15.50;;;2.88;;
55692;SDS011;41590;53.366;5.212;2023-08-20T08:29:56;16.05;;;2.97;;
55692;SDS011;41590;53.366;5.212;2023-08-20T08:35:39;10.70;;;2.63;;
55692;SDS011;41590;53.366;5.212;2023-08-20T08:38:12;14.43;;;2.80;;
55692;SDS011;41590;53.366;5.212;2023-08-20T08:40:56;13.30;;;2.75;;
55692;SDS011;41590;53.366;5.212;2023-08-20T08:43:25;16.60;;;2.83;;
55692;SDS011;41590;53.366;5.212;2023-08-20T08:45:55;18.58;;;2.95;;
55692;SDS011;41590;53.366;5.212;2023-08-20T08:51:44;10.73;;;2.55;;
55692;SDS011;41590;53.366;5.212;2023-08-20T08:57:12;17.38;;;3.03;;
55692;SDS011;41590;53.366;5.212;2023-08-20T08:59:46;13.90;;;2.60;;
55692;SDS011;41590;53.366;5.212;2023-08-20T09:11:35;22.15;;;2.92;;
55692;SDS011;41590;53.366;5.212;2023-08-20T09:17:19;17.33;;;2.65;;
55692;SDS011;41590;53.366;5.212;2023-08-20T09:19:46;17.30;;;2.85;;
55692;SDS011;41590;53.366;5.212;2023-08-20T09:22:13;14.30;;;2.50;;
55692;SDS011;41590;53.366;5.212;2023-08-20T09:24:42;15.98;;;2.65;;
55692;SDS011;41590;53.366;5.212;2023-08-20T09:30:25;16.17;;;2.90;;
55692;SDS011;41590;53.366;5.212;2023-08-20T09:33:12;13.05;;;3.40;;
55692;SDS011;41590;53.366;5.212;2023-08-20T09:35:48;15.05;;;3.30;;
55692;SDS011;41590;53.366;5.212;2023-08-20T09:38:19;13.48;;;2.67;;
55692;SDS011;41590;53.366;5.212;2023-08-20T09:40:55;15.52;;;3.10;;
55692;SDS011;41590;53.366;5.212;2023-08-20T09:43:25;16.33;;;2.97;;
55692;SDS011;41590;53.366;5.212;2023-08-20T09:45:54;15.60;;;3.05;;
55692;SDS011;41590;53.366;5.212;2023-08-20T09:48:24;20.20;;;2.70;;
55692;SDS011;41590;53.366;5.212;2023-08-20T09:53:39;14.50;;;2.50;;
55692;SDS011;41590;53.366;5.212;2023-08-20T09:56:29;16.55;;;3.03;;
55692;SDS011;41590;53.366;5.212;2023-08-20T09:59:02;17.95;;;3.83;;
55692;SDS011;41590;53.366;5.212;2023-08-20T10:04:05;13.73;;;2.47;;
55692;SDS011;41590;53.366;5.212;2023-08-20T10:06:32;10.80;;;2.28;;
55692;SDS011;41590;53.366;5.212;2023-08-20T10:15:23;15.98;;;2.67;;
55692;SDS011;41590;53.366;5.212;2023-08-20T10:20:28;13.20;;;3.22;;
55692;SDS011;41590;53.366;5.212;2023-08-20T10:23:00;13.20;;;2.42;;
55692;SDS011;41590;53.366;5.212;2023-08-20T10:25:29;15.40;;;2.75;;
55692;SDS011;41590;53.366;5.212;2023-08-20T10:39:19;13.13;;;2.03;;
55692;SDS011;41590;53.366;5.212;2023-08-20T10:41:48;15.55;;;3.38;;
55692;SDS011;41590;53.366;5.212;2023-08-20T10:47:02;14.57;;;2.58;;
55692;SDS011;41590;53.366;5.212;2023-08-20T10:49:38;16.30;;;3.30;;
55692;SDS011;41590;53.366;5.212;2023-08-20T10:55:06;11.70;;;2.78;;
55692;SDS011;41590;53.366;5.212;2023-08-20T10:57:38;13.60;;;2.92;;
55692;SDS011;41590;53.366;5.212;2023-08-20T11:00:07;16.27;;;3.17;;
55692;SDS011;41590;53.366;5.212;2023-08-20T11:02:42;9.45;;;2.30;;
55692;SDS011;41590;53.366;5.212;2023-08-20T11:07:59;11.38;;;2.45;;
55692;SDS011;41590;53.366;5.212;2023-08-20T11:10:28;16.40;;;2.67;;
55692;SDS011;41590;53.366;5.212;2023-08-20T11:15:28;13.18;;;2.90;;
55692;SDS011;41590;53.366;5.212;2023-08-20T11:17:56;10.13;;;2.50;;
55692;SDS011;41590;53.366;5.212;2023-08-20T11:20:22;13.68;;;2.33;;
55692;SDS011;41590;53.366;5.212;2023-08-20T11:25:57;12.50;;;3.08;;
55692;SDS011;41590;53.366;5.212;2023-08-20T11:28:27;8.88;;;2.38;;
55692;SDS011;41590;53.366;5.212;2023-08-20T11:30:58;13.80;;;2.95;;
55692;SDS011;41590;53.366;5.212;2023-08-20T11:33:24;13.43;;;2.63;;
55692;SDS011;41590;53.366;5.212;2023-08-20T11:35:51;16.15;;;3.33;;
55692;SDS011;41590;53.366;5.212;2023-08-20T11:38:19;12.13;;;2.42;;
55692;SDS011;41590;53.366;5.212;2023-08-20T11:40:46;14.25;;;2.42;;
55692;SDS011;41590;53.366;5.212;2023-08-20T11:43:15;12.98;;;2.88;;
55692;SDS011;41590;53.366;5.212;2023-08-20T11:45:48;12.07;;;3.00;;
55692;SDS011;41590;53.366;5.212;2023-08-20T11:50:42;12.68;;;2.53;;
55692;SDS011;41590;53.366;5.212;2023-08-20T11:53:09;7.53;;;2.03;;
55692;SDS011;41590;53.366;5.212;2023-08-20T11:55:37;9.85;;;2.35;;
55692;SDS011;41590;53.366;5.212;2023-08-20T11:58:03;9.55;;;2.10;;
55692;SDS011;41590;53.366;5.212;2023-08-20T12:00:47;12.43;;;2.42;;
55692;SDS011;41590;53.366;5.212;2023-08-20T12:03:18;12.18;;;2.70;;
55692;SDS011;41590;53.366;5.212;2023-08-20T12:05:45;12.15;;;2.83;;
55692;SDS011;41590;53.366;5.212;2023-08-20T12:08:15;14.20;;;2.95;;
55692;SDS011;41590;53.366;5.212;2023-08-20T12:13:16;15.38;;;2.90;;
55692;SDS011;41590;53.366;5.212;2023-08-20T12:15:42;13.82;;;2.42;;
55692;SDS011;41590;53.366;5.212;2023-08-20T12:21:08;17.42;;;3.15;;
55692;SDS011;41590;53.366;5.212;2023-08-20T12:23:39;12.00;;;2.90;;
55692;SDS011;41590;53.366;5.212;2023-08-20T12:26:06;14.35;;;2.95;;
55692;SDS011;41590;53.366;5.212;2023-08-20T12:28:35;17.40;;;3.35;;
55692;SDS011;41590;53.366;5.212;2023-08-20T12:31:02;14.18;;;2.70;;
55692;SDS011;41590;53.366;5.212;2023-08-20T12:33:28;13.35;;;2.80;;
55692;SDS011;41590;53.366;5.212;2023-08-20T12:35:55;13.65;;;2.85;;
55692;SDS011;41590;53.366;5.212;2023-08-20T12:38:21;13.63;;;2.55;;
55692;SDS011;41590;53.366;5.212;2023-08-20T12:40:52;12.45;;;2.17;;
55692;SDS011;41590;53.366;5.212;2023-08-20T12:43:18;10.10;;;3.05;;
55692;SDS011;41590;53.366;5.212;2023-08-20T12:45:44;17.33;;;2.80;;
55692;SDS011;41590;53.366;5.212;2023-08-20T12:48:10;13.20;;;2.63;;
55692;SDS011;41590;53.366;5.212;2023-08-20T12:50:36;14.00;;;2.85;;
55692;SDS011;41590;53.366;5.212;2023-08-20T12:53:02;14.52;;;2.22;;
55692;SDS011;41590;53.366;5.212;2023-08-20T12:55:29;14.48;;;2.60;;
55692;SDS011;41590;53.366;5.212;2023-08-20T12:57:56;11.60;;;2.42;;
55692;SDS011;41590;53.366;5.212;2023-08-20T13:00:22;14.55;;;2.70;;
55692;SDS011;41590;53.366;5.212;2023-08-20T13:10:40;13.68;;;2.50;;
55692;SDS011;41590;53.366;5.212;2023-08-20T13:13:10;10.48;;;2.47;;
55692;SDS011;41590;53.366;5.212;2023-08-20T13:15:41;17.00;;;2.72;;
55692;SDS011;41590;53.366;5.212;2023-08-20T13:20:45;11.05;;;2.17;;
55692;SDS011;41590;53.366;5.212;2023-08-20T13:23:17;13.52;;;2.75;;
55692;SDS011;41590;53.366;5.212;2023-08-20T13:25:43;12.80;;;2.15;;
55692;SDS011;41590;53.366;5.212;2023-08-20T13:31:21;11.32;;;2.40;;
55692;SDS011;41590;53.366;5.212;2023-08-20T13:33:49;10.88;;;2.20;;
55692;SDS011;41590;53.366;5.212;2023-08-20T13:36:16;9.63;;;2.58;;
55692;SDS011;41590;53.366;5.212;2023-08-20T13:38:42;8.48;;;1.83;;
55692;SDS011;41590;53.366;5.212;2023-08-20T13:41:09;8.77;;;2.10;;
55692;SDS011;41590;53.366;5.212;2023-08-20T13:43:35;12.63;;;1.90;;
55692;SDS011;41590;53.366;5.212;2023-08-20T13:48:38;9.30;;;1.85;;
55692;SDS011;41590;53.366;5.212;2023-08-20T13:51:13;8.60;;;1.85;;
55692;SDS011;41590;53.366;5.212;2023-08-20T13:53:45;9.43;;;2.25;;
55692;SDS011;41590;53.366;5.212;2023-08-20T13:58:43;13.57;;;2.58;;
55692;SDS011;41590;53.366;5.212;2023-08-20T14:01:09;13.55;;;2.55;;
55692;SDS011;41590;53.366;5.212;2023-08-20T14:03:47;8.52;;;1.92;;
55692;SDS011;41590;53.366;5.212;2023-08-20T14:06:18;10.93;;;2.08;;
55692;SDS011;41590;53.366;5.212;2023-08-20T14:08:53;12.90;;;2.03;;
55692;SDS011;41590;53.366;5.212;2023-08-20T14:13:49;12.20;;;2.40;;
55692;SDS011;41590;53.366;5.212;2023-08-20T14:16:16;9.25;;;2.22;;
55692;SDS011;41590;53.366;5.212;2023-08-20T14:18:52;10.65;;;2.55;;
55692;SDS011;41590;53.366;5.212;2023-08-20T14:24:15;14.10;;;2.45;;
55692;SDS011;41590;53.366;5.212;2023-08-20T14:29:13;12.20;;;2.42;;
55692;SDS011;41590;53.366;5.212;2023-08-20T14:31:45;12.02;;;2.50;;
55692;SDS011;41590;53.366;5.212;2023-08-20T14:34:12;13.60;;;2.40;;
55692;SDS011;41590;53.366;5.212;2023-08-20T14:39:31;9.75;;;2.67;;
55692;SDS011;41590;53.366;5.212;2023-08-20T14:41:58;14.38;;;2.42;;
55692;SDS011;41590;53.366;5.212;2023-08-20T14:44:34;10.98;;;2.40;;
55692;SDS011;41590;53.366;5.212;2023-08-20T14:47:00;12.15;;;2.60;;
55692;SDS011;41590;53.366;5.212;2023-08-20T14:49:29;8.95;;;2.25;;
55692;SDS011;41590;53.366;5.212;2023-08-20T14:54:28;10.30;;;2.30;;
55692;SDS011;41590;53.366;5.212;2023-08-20T14:56:54;9.30;;;2.25;;
55692;SDS011;41590;53.366;5.212;2023-08-20T14:59:26;11.27;;;2.08;;
55692;SDS011;41590;53.366;5.212;2023-08-20T15:04:20;13.15;;;2.63;;
55692;SDS011;41590;53.366;5.212;2023-08-20T15:09:54;13.60;;;2.58;;
55692;SDS011;41590;53.366;5.212;2023-08-20T15:12:20;7.95;;;2.33;;
55692;SDS011;41590;53.366;5.212;2023-08-20T15:17:18;12.35;;;2.90;;
55692;SDS011;41590;53.366;5.212;2023-08-20T15:19:48;8.73;;;2.10;;
55692;SDS011;41590;53.366;5.212;2023-08-20T15:22:15;8.65;;;2.20;;
55692;SDS011;41590;53.366;5.212;2023-08-20T15:24:54;11.80;;;2.65;;
55692;SDS011;41590;53.366;5.212;2023-08-20T15:29:51;8.52;;;2.10;;
55692;SDS011;41590;53.366;5.212;2023-08-20T15:40:21;11.45;;;2.20;;
55692;SDS011;41590;53.366;5.212;2023-08-20T15:42:48;13.57;;;2.50;;
55692;SDS011;41590;53.366;5.212;2023-08-20T15:45:16;9.05;;;1.88;;
55692;SDS011;41590;53.366;5.212;2023-08-20T15:47:43;13.77;;;2.60;;
55692;SDS011;41590;53.366;5.212;2023-08-20T15:50:14;11.00;;;2.03;;
55692;SDS011;41590;53.366;5.212;2023-08-20T15:52:42;7.13;;;2.03;;
55692;SDS011;41590;53.366;5.212;2023-08-20T15:55:10;10.38;;;2.25;;
55692;SDS011;41590;53.366;5.212;2023-08-20T15:57:45;11.70;;;2.30;;
55692;SDS011;41590;53.366;5.212;2023-08-20T16:00:12;8.55;;;1.85;;
55692;SDS011;41590;53.366;5.212;2023-08-20T16:05:21;8.98;;;1.83;;
55692;SDS011;41590;53.366;5.212;2023-08-20T16:07:51;6.43;;;1.63;;
55692;SDS011;41590;53.366;5.212;2023-08-20T16:10:26;8.05;;;2.10;;
55692;SDS011;41590;53.366;5.212;2023-08-20T16:12:53;9.40;;;2.00;;
55692;SDS011;41590;53.366;5.212;2023-08-20T16:15:20;10.43;;;1.98;;
55692;SDS011;41590;53.366;5.212;2023-08-20T16:17:48;11.13;;;2.28;;
55692;SDS011;41590;53.366;5.212;2023-08-20T16:20:14;7.68;;;1.85;;
55692;SDS011;41590;53.366;5.212;2023-08-20T16:22:40;8.93;;;1.80;;
55692;SDS011;41590;53.366;5.212;2023-08-20T16:25:09;10.07;;;4.05;;
55692;SDS011;41590;53.366;5.212;2023-08-20T16:27:37;13.50;;;3.13;;
55692;SDS011;41590;53.366;5.212;2023-08-20T16:30:07;9.48;;;2.15;;
55692;SDS011;41590;53.366;5.212;2023-08-20T16:32:51;19.63;;;7.70;;
55692;SDS011;41590;53.366;5.212;2023-08-20T16:35:26;8.82;;;2.30;;
55692;SDS011;41590;53.366;5.212;2023-08-20T16:37:52;7.80;;;2.15;;
55692;SDS011;41590;53.366;5.212;2023-08-20T16:40:24;9.32;;;1.92;;
55692;SDS011;41590;53.366;5.212;2023-08-20T16:42:52;11.40;;;2.38;;
55692;SDS011;41590;53.366;5.212;2023-08-20T16:45:20;7.20;;;1.98;;
55692;SDS011;41590;53.366;5.212;2023-08-20T16:47:48;10.98;;;2.00;;
55692;SDS011;41590;53.366;5.212;2023-08-20T16:50:14;11.80;;;2.25;;
55692;SDS011;41590;53.366;5.212;2023-08-20T16:52:42;10.20;;;2.20;;
55692;SDS011;41590;53.366;5.212;2023-08-20T16:55:08;11.00;;;2.33;;
55692;SDS011;41590;53.366;5.212;2023-08-20T16:57:35;12.18;;;2.00;;
55692;SDS011;41590;53.366;5.212;2023-08-20T17:00:02;7.80;;;2.05;;
55692;SDS011;41590;53.366;5.212;2023-08-20T17:02:31;8.77;;;1.98;;
55692;SDS011;41590;53.366;5.212;2023-08-20T17:04:57;11.70;;;2.08;;
55692;SDS011;41590;53.366;5.212;2023-08-20T17:07:29;10.82;;;2.47;;
55692;SDS011;41590;53.366;5.212;2023-08-20T17:12:25;10.38;;;2.47;;
55692;SDS011;41590;53.366;5.212;2023-08-20T17:14:51;8.38;;;2.35;;
55692;SDS011;41590;53.366;5.212;2023-08-20T17:17:18;9.73;;;1.65;;
55692;SDS011;41590;53.366;5.212;2023-08-20T17:19:45;8.68;;;1.90;;
55692;SDS011;41590;53.366;5.212;2023-08-20T17:22:16;7.32;;;2.20;;
55692;SDS011;41590;53.366;5.212;2023-08-20T17:24:44;11.40;;;2.65;;
55692;SDS011;41590;53.366;5.212;2023-08-20T17:27:10;13.60;;;2.40;;
55692;SDS011;41590;53.366;5.212;2023-08-20T17:29:36;7.38;;;1.67;;
55692;SDS011;41590;53.366;5.212;2023-08-20T17:32:18;10.43;;;2.00;;
55692;SDS011;41590;53.366;5.212;2023-08-20T17:34:49;11.55;;;2.40;;
55692;SDS011;41590;53.366;5.212;2023-08-20T17:37:15;11.40;;;2.53;;
55692;SDS011;41590;53.366;5.212;2023-08-20T17:39:42;15.43;;;2.47;;
55692;SDS011;41590;53.366;5.212;2023-08-20T17:42:10;9.25;;;2.15;;
55692;SDS011;41590;53.366;5.212;2023-08-20T17:44:50;7.38;;;2.00;;
55692;SDS011;41590;53.366;5.212;2023-08-20T17:47:22;10.57;;;1.92;;
55692;SDS011;41590;53.366;5.212;2023-08-20T17:50:00;9.38;;;2.40;;
55692;SDS011;41590;53.366;5.212;2023-08-20T17:52:27;10.88;;;2.25;;
55692;SDS011;41590;53.366;5.212;2023-08-20T17:54:53;7.70;;;2.40;;
55692;SDS011;41590;53.366;5.212;2023-08-20T17:57:19;13.70;;;2.22;;
55692;SDS011;41590;53.366;5.212;2023-08-20T17:59:49;12.80;;;2.30;;
55692;SDS011;41590;53.366;5.212;2023-08-20T18:02:18;10.45;;;2.30;;
55692;SDS011;41590;53.366;5.212;2023-08-20T18:04:47;13.73;;;2.45;;
55692;SDS011;41590;53.366;5.212;2023-08-20T18:07:17;10.07;;;2.35;;
55692;SDS011;41590;53.366;5.212;2023-08-20T18:09:46;12.57;;;2.00;;
55692;SDS011;41590;53.366;5.212;2023-08-20T18:12:15;10.57;;;2.00;;
55692;SDS011;41590;53.366;5.212;2023-08-20T18:14:53;9.00;;;1.95;;
55692;SDS011;41590;53.366;5.212;2023-08-20T18:17:37;13.05;;;2.60;;
55692;SDS011;41590;53.366;5.212;2023-08-20T18:20:10;8.90;;;2.33;;
55692;SDS011;41590;53.366;5.212;2023-08-20T18:22:46;14.10;;;3.13;;
55692;SDS011;41590;53.366;5.212;2023-08-20T18:25:15;9.18;;;2.47;;
55692;SDS011;41590;53.366;5.212;2023-08-20T18:30:23;17.33;;;3.03;;
55692;SDS011;41590;53.366;5.212;2023-08-20T18:32:53;12.73;;;2.80;;
55692;SDS011;41590;53.366;5.212;2023-08-20T18:37:52;9.98;;;2.20;;
55692;SDS011;41590;53.366;5.212;2023-08-20T18:46:52;8.32;;;2.22;;
55692;SDS011;41590;53.366;5.212;2023-08-20T18:58:29;14.43;;;2.92;;
55692;SDS011;41590;53.366;5.212;2023-08-20T19:06:26;9.57;;;1.95;;
55692;SDS011;41590;53.366;5.212;2023-08-20T19:11:30;11.32;;;2.17;;
55692;SDS011;41590;53.366;5.212;2023-08-20T19:14:13;14.18;;;2.53;;
55692;SDS011;41590;53.366;5.212;2023-08-20T19:16:49;11.65;;;2.30;;
55692;SDS011;41590;53.366;5.212;2023-08-20T19:19:21;9.80;;;2.33;;
55692;SDS011;41590;53.366;5.212;2023-08-20T19:21:52;8.73;;;2.22;;
55692;SDS011;41590;53.366;5.212;2023-08-20T19:27:41;11.73;;;2.75;;
55692;SDS011;41590;53.366;5.212;2023-08-20T19:36:39;11.88;;;2.65;;
55692;SDS011;41590;53.366;5.212;2023-08-20T19:39:20;11.25;;;2.50;;
55692;SDS011;41590;53.366;5.212;2023-08-20T19:49:48;10.00;;;2.10;;
55692;SDS011;41590;53.366;5.212;2023-08-20T19:55:47;10.18;;;2.70;;
55692;SDS011;41590;53.366;5.212;2023-08-20T20:04:20;13.90;;;4.55;;
55692;SDS011;41590;53.366;5.212;2023-08-20T20:07:29;14.60;;;2.67;;
55692;SDS011;41590;53.366;5.212;2023-08-20T20:10:32;12.73;;;2.55;;
55692;SDS011;41590;53.366;5.212;2023-08-20T20:13:07;15.65;;;2.92;;
55692;SDS011;41590;53.366;5.212;2023-08-20T20:53:26;13.93;;;2.78;;
55692;SDS011;41590;53.366;5.212;2023-08-20T20:58:42;12.05;;;2.65;;
55692;SDS011;41590;53.366;5.212;2023-08-20T21:01:09;13.20;;;2.90;;
55692;SDS011;41590;53.366;5.212;2023-08-20T21:03:43;14.50;;;2.58;;
55692;SDS011;41590;53.366;5.212;2023-08-20T21:06:12;14.77;;;3.08;;
55692;SDS011;41590;53.366;5.212;2023-08-20T21:08:53;11.63;;;2.90;;
55692;SDS011;41590;53.366;5.212;2023-08-20T21:30:37;7.90;;;2.33;;
55692;SDS011;41590;53.366;5.212;2023-08-20T21:33:13;14.82;;;3.03;;
55692;SDS011;41590;53.366;5.212;2023-08-20T21:35:47;12.30;;;2.80;;
55692;SDS011;41590;53.366;5.212;2023-08-20T21:38:18;19.20;;;2.42;;
55692;SDS011;41590;53.366;5.212;2023-08-20T21:40:51;10.95;;;2.80;;
55692;SDS011;41590;53.366;5.212;2023-08-20T21:43:21;12.45;;;3.08;;
55692;SDS011;41590;53.366;5.212;2023-08-20T21:46:05;12.95;;;2.70;;
55692;SDS011;41590;53.366;5.212;2023-08-20T21:52:18;12.07;;;2.35;;
55692;SDS011;41590;53.366;5.212;2023-08-20T21:58:08;13.00;;;2.72;;
55692;SDS011;41590;53.366;5.212;2023-08-20T22:04:15;9.20;;;2.50;;
55692;SDS011;41590;53.366;5.212;2023-08-20T22:06:47;16.35;;;3.33;;
55692;SDS011;41590;53.366;5.212;2023-08-20T22:09:18;16.55;;;3.40;;
55692;SDS011;41590;53.366;5.212;2023-08-20T22:11:51;10.02;;;2.92;;
55692;SDS011;41590;53.366;5.212;2023-08-20T22:14:20;11.73;;;3.28;;
55692;SDS011;41590;53.366;5.212;2023-08-20T22:19:51;11.05;;;2.78;;
55692;SDS011;41590;53.366;5.212;2023-08-20T22:22:33;16.10;;;3.17;;
55692;SDS011;41590;53.366;5.212;2023-08-20T22:25:07;14.00;;;3.33;;
55692;SDS011;41590;53.366;5.212;2023-08-20T22:27:35;11.73;;;2.85;;
55692;SDS011;41590;53.366;5.212;2023-08-20T22:35:50;15.73;;;3.47;;
55692;SDS011;41590;53.366;5.212;2023-08-20T22:38:17;12.48;;;3.00;;
55692;SDS011;41590;53.366;5.212;2023-08-20T22:40:49;12.75;;;3.20;;
55692;SDS011;41590;53.366;5.212;2023-08-20T22:49:29;12.40;;;3.00;;
55692;SDS011;41590;53.366;5.212;2023-08-20T22:51:55;11.43;;;2.63;;
55692;SDS011;41590;53.366;5.212;2023-08-20T22:54:32;9.52;;;2.65;;
55692;SDS011;41590;53.366;5.212;2023-08-20T23:00:39;10.13;;;2.50;;
55692;SDS011;41590;53.366;5.212;2023-08-20T23:12:05;12.10;;;2.80;;
55692;SDS011;41590;53.366;5.212;2023-08-20T23:20:49;7.95;;;2.50;;
55692;SDS011;41590;53.366;5.212;2023-08-20T23:23:19;14.25;;;3.25;;
55692;SDS011;41590;53.366;5.212;2023-08-20T23:35:17;8.27;;;2.65;;
55692;SDS011;41590;53.366;5.212;2023-08-20T23:37:47;9.68;;;2.70;;